Time;durP1;ratioP1;P1;durP2;ratioP2;P2;SDS_P1;SDS_P2;PMS_P1;PMS_P2;Temp;Humidity;BMP_temperature;BMP_pressure;BME280_temperature;BME280_humidity;BME280_pressure;Samples;Min_cycle;Max_cycle;Signal;HPM_P1;HPM_P2
2021/07/08 00:01:08;;;;;;;9.77;3.97;;;19.10;99.90;;;;;;4432659;28;657476;-68
2021/07/08 00:03:55;;;;;;;10.37;3.80;;;19.10;99.90;;;;;;4443237;28;656564;-69
2021/07/08 00:06:44;;;;;;;9.63;3.70;;;19.00;99.90;;;;;;4440964;28;656999;-69
2021/07/08 00:09:32;;;;;;;12.37;4.20;;;19.00;99.90;;;;;;4422562;28;656397;-69
2021/07/08 00:12:19;;;;;;;8.63;3.83;;;18.90;99.90;;;;;;4428237;28;658663;-68
2021/07/08 00:15:09;;;;;;;9.40;3.70;;;19.00;99.90;;;;;;4460159;28;656832;-69
2021/07/08 00:17:57;;;;;;;8.63;3.90;;;18.90;99.90;;;;;;4436008;28;657581;-68
2021/07/08 00:20:46;;;;;;;8.23;4.07;;;18.80;99.90;;;;;;4437045;28;656501;-69
2021/07/08 00:23:36;;;;;;;7.77;3.90;;;18.70;99.90;;;;;;4460527;28;656977;-69
2021/07/08 00:26:23;;;;;;;10.13;4.60;;;18.70;99.90;;;;;;4451018;28;656360;-69
2021/07/08 00:29:11;;;;;;;7.53;3.87;;;18.50;99.90;;;;;;4428233;28;657880;-69
2021/07/08 00:31:58;;;;;;;16.83;4.50;;;18.50;99.90;;;;;;4448007;28;656624;-69
2021/07/08 00:34:46;;;;;;;9.30;4.47;;;18.50;99.90;;;;;;4421131;28;658144;-69
2021/07/08 00:37:33;;;;;;;9.83;4.10;;;18.50;99.90;;;;;;4454943;28;656598;-69
2021/07/08 00:40:22;;;;;;;10.30;4.60;;;18.40;99.90;;;;;;4428409;28;657812;-69
2021/07/08 00:43:10;;;;;;;13.30;4.50;;;18.40;99.90;;;;;;4423450;28;657419;-69
2021/07/08 00:45:58;;;;;;;17.40;5.57;;;18.30;99.90;;;;;;4449820;28;657690;-69
2021/07/08 00:48:45;;;;;;;16.37;4.77;;;18.20;99.90;;;;;;4433742;28;658528;-69
2021/07/08 00:51:33;;;;;;;19.73;5.00;;;18.20;99.90;;;;;;4433013;28;658701;-69
2021/07/08 00:54:20;;;;;;;13.60;4.90;;;18.20;99.90;;;;;;4414880;28;657509;-69
2021/07/08 00:57:09;;;;;;;15.80;5.07;;;18.10;99.90;;;;;;4446275;28;657703;-69
2021/07/08 00:59:57;;;;;;;11.38;5.25;;;18.10;99.90;;;;;;4420076;28;658129;-69
2021/07/08 01:02:44;;;;;;;17.43;5.17;;;18.10;99.90;;;;;;4439868;28;657581;-69
2021/07/08 01:05:33;;;;;;;16.63;5.10;;;18.00;99.90;;;;;;4431313;28;658766;-69
2021/07/08 01:08:21;;;;;;;11.77;4.80;;;18.00;99.90;;;;;;4412073;28;658582;-69
2021/07/08 01:11:09;;;;;;;13.03;5.03;;;18.00;99.90;;;;;;4457356;28;658055;-69
2021/07/08 01:13:58;;;;;;;13.27;5.27;;;18.00;99.90;;;;;;4414171;28;658541;-69
2021/07/08 01:16:45;;;;;;;8.80;4.93;;;18.00;99.90;;;;;;4435812;28;657856;-69
2021/07/08 01:19:34;;;;;;;7.63;4.60;;;17.90;99.90;;;;;;4442636;28;658083;-69
2021/07/08 01:22:23;;;;;;;9.30;5.13;;;17.90;99.90;;;;;;4411380;28;657443;-69
2021/07/08 01:25:12;;;;;;;12.17;5.30;;;17.90;99.90;;;;;;4413527;28;656953;-69
2021/07/08 01:28:00;;;;;;;13.60;5.40;;;17.80;99.90;;;;;;4444337;28;658212;-69
2021/07/08 01:30:48;;;;;;;10.87;5.50;;;17.80;99.90;;;;;;4440228;28;658390;-69
2021/07/08 01:33:35;;;;;;;11.50;5.73;;;17.80;99.90;;;;;;4439274;28;657246;-69
2021/07/08 01:36:23;;;;;;;9.97;5.03;;;17.80;99.90;;;;;;4448368;28;658361;-69
2021/07/08 01:39:12;;;;;;;10.37;5.50;;;17.80;99.90;;;;;;4435341;28;656898;-69
2021/07/08 01:42:00;;;;;;;14.73;5.33;;;17.80;99.90;;;;;;4430061;28;657603;-69
2021/07/08 01:44:47;;;;;;;16.87;5.13;;;17.80;99.90;;;;;;4460315;28;659834;-69
2021/07/08 01:47:35;;;;;;;15.73;5.73;;;17.80;99.90;;;;;;4424786;28;658209;-69
2021/07/08 01:50:22;;;;;;;14.37;5.63;;;17.80;99.90;;;;;;4462708;28;659419;-69
2021/07/08 01:53:11;;;;;;;11.27;5.70;;;17.80;99.90;;;;;;4435633;28;657346;-69
2021/07/08 01:56:02;;;;;;;12.07;5.20;;;17.80;99.90;;;;;;4441875;28;657807;-69
2021/07/08 01:58:52;;;;;;;10.40;5.13;;;17.80;99.90;;;;;;4414264;28;657962;-69
2021/07/08 02:01:44;;;;;;;12.70;5.47;;;17.70;99.90;;;;;;4435116;28;657899;-69
2021/07/08 02:04:32;;;;;;;11.83;5.23;;;17.60;99.90;;;;;;4429018;28;658366;-69
2021/07/08 02:07:21;;;;;;;13.93;5.80;;;17.60;99.90;;;;;;4430463;28;658341;-69
2021/07/08 02:10:11;;;;;;;8.20;5.80;;;17.50;99.90;;;;;;4440712;28;657925;-69
2021/07/08 02:13:02;;;;;;;9.27;5.40;;;17.50;99.90;;;;;;4453016;28;656613;-69
2021/07/08 02:15:51;;;;;;;8.03;5.07;;;17.50;99.90;;;;;;4391876;28;656486;-69
2021/07/08 02:18:45;;;;;;;9.23;5.37;;;17.40;99.90;;;;;;4439854;28;656542;-69
2021/07/08 02:21:35;;;;;;;10.43;5.70;;;17.40;99.90;;;;;;4433953;28;657119;-69
2021/07/08 02:24:22;;;;;;;12.20;6.10;;;17.50;99.90;;;;;;4442948;28;658381;-69
2021/07/08 02:27:10;;;;;;;9.63;5.67;;;17.40;99.90;;;;;;4440092;28;657423;-69
2021/07/08 02:29:59;;;;;;;15.53;6.10;;;17.40;99.90;;;;;;4447519;28;656677;-69
2021/07/08 02:32:48;;;;;;;12.30;6.03;;;17.40;99.90;;;;;;4412443;28;659057;-68
2021/07/08 02:35:36;;;;;;;12.67;5.60;;;17.40;99.90;;;;;;4420641;28;657652;-68
2021/07/08 02:38:23;;;;;;;13.67;5.60;;;17.40;99.90;;;;;;4449559;28;658074;-68
2021/07/08 02:41:38;;;;;;;7.13;5.20;;;17.40;99.90;;;;;;4426202;28;659067;-68
2021/07/08 02:44:26;;;;;;;10.37;5.23;;;17.30;99.90;;;;;;4432387;28;656571;-67
2021/07/08 02:47:49;;;;;;;11.20;5.57;;;17.30;99.90;;;;;;4449252;28;657326;-68
2021/07/08 02:51:04;;;;;;;8.73;5.40;;;17.20;99.90;;;;;;4403459;28;658525;-67
2021/07/08 02:53:51;;;;;;;6.90;5.47;;;17.20;99.90;;;;;;4404250;28;657926;-68
2021/07/08 02:56:39;;;;;;;13.07;5.63;;;17.20;99.90;;;;;;4450883;28;656509;-68
2021/07/08 02:59:26;;;;;;;13.37;5.50;;;17.20;99.90;;;;;;4413727;28;658251;-68
2021/07/08 03:02:14;;;;;;;7.73;5.50;;;17.20;99.90;;;;;;4430861;28;657322;-68
2021/07/08 03:05:03;;;;;;;8.70;5.67;;;17.20;99.90;;;;;;4433996;28;657508;-68
2021/07/08 03:07:51;;;;;;;10.23;5.40;;;17.20;99.90;;;;;;4426962;28;656748;-68
2021/07/08 03:10:38;;;;;;;10.87;5.50;;;17.10;99.90;;;;;;4427970;28;657290;-68
2021/07/08 03:13:26;;;;;;;8.53;5.53;;;17.10;99.90;;;;;;4439932;28;659379;-67
2021/07/08 03:16:14;;;;;;;13.47;5.20;;;17.10;99.90;;;;;;4442791;28;656133;-68
2021/07/08 03:19:01;;;;;;;7.43;5.23;;;17.00;99.90;;;;;;4422215;28;659062;-68
2021/07/08 03:21:50;;;;;;;9.77;5.23;;;17.00;99.90;;;;;;4461205;28;656486;-68
2021/07/08 03:24:38;;;;;;;12.23;5.43;;;17.00;99.90;;;;;;4437536;28;657359;-67
2021/07/08 03:27:25;;;;;;;8.03;5.50;;;17.00;99.90;;;;;;4429980;28;657258;-68
2021/07/08 03:30:15;;;;;;;9.30;5.60;;;17.00;99.90;;;;;;4464646;28;656476;-68
2021/07/08 03:33:03;;;;;;;9.83;5.70;;;17.10;99.90;;;;;;4432421;28;657760;-68
2021/07/08 03:35:51;;;;;;;9.13;5.63;;;17.10;99.90;;;;;;4438042;28;656658;-68
2021/07/08 03:38:40;;;;;;;11.23;5.63;;;17.10;99.90;;;;;;4465922;28;656462;-70
2021/07/08 03:41:27;;;;;;;10.13;5.37;;;17.00;99.90;;;;;;4437221;28;658698;-70
2021/07/08 03:44:15;;;;;;;11.13;5.43;;;17.10;99.90;;;;;;4442246;28;657443;-70
2021/07/08 03:47:03;;;;;;;14.30;6.13;;;17.10;99.90;;;;;;4449443;28;657463;-70
2021/07/08 03:49:50;;;;;;;10.00;5.70;;;17.10;99.90;;;;;;4446798;28;657819;-70
2021/07/08 03:52:39;;;;;;;6.97;5.30;;;17.10;99.90;;;;;;4458768;28;657615;-70
2021/07/08 03:55:28;;;;;;;17.47;5.47;;;17.10;99.90;;;;;;4423120;28;656860;-70
2021/07/08 03:58:16;;;;;;;9.73;5.20;;;17.10;99.90;;;;;;4445316;28;658935;-70
2021/07/08 04:01:03;;;;;;;13.40;6.13;;;17.10;99.90;;;;;;4450461;28;656665;-71
2021/07/08 04:03:51;;;;;;;11.53;5.20;;;17.10;99.90;;;;;;4420047;28;657861;-70
2021/07/08 04:06:38;;;;;;;10.87;5.03;;;17.00;99.90;;;;;;4446654;28;657176;-70
2021/07/08 04:09:26;;;;;;;7.83;5.27;;;17.00;99.90;;;;;;4425051;28;658573;-70
2021/07/08 04:12:15;;;;;;;12.00;5.30;;;17.10;99.90;;;;;;4453059;28;657136;-70
2021/07/08 04:15:02;;;;;;;11.40;5.33;;;17.10;99.90;;;;;;4411156;28;659120;-70
2021/07/08 04:17:50;;;;;;;12.03;4.70;;;17.20;99.90;;;;;;4416668;28;657427;-70
2021/07/08 04:20:37;;;;;;;10.97;5.00;;;17.30;99.90;;;;;;4431200;28;658546;-70
2021/07/08 04:23:26;;;;;;;8.00;5.07;;;17.40;99.90;;;;;;4423988;28;657822;-70
2021/07/08 04:26:14;;;;;;;9.70;5.07;;;17.40;99.90;;;;;;4439253;28;656251;-70
2021/07/08 04:29:04;;;;;;;8.83;4.77;;;17.50;99.90;;;;;;4405839;28;657004;-70
2021/07/08 04:31:51;;;;;;;11.43;4.87;;;17.60;99.90;;;;;;4403253;28;657576;-69
2021/07/08 04:34:40;;;;;;;9.93;5.27;;;17.70;99.90;;;;;;4444970;28;657024;-70
2021/07/08 04:37:27;;;;;;;7.13;5.10;;;17.70;99.90;;;;;;4420888;28;657762;-70
2021/07/08 04:40:16;;;;;;;17.53;6.17;;;17.80;99.90;;;;;;4419748;28;656604;-70
2021/07/08 04:43:04;;;;;;;14.43;6.27;;;17.90;99.90;;;;;;4432699;28;657249;-69
2021/07/08 04:45:53;;;;;;;12.90;5.83;;;18.00;99.90;;;;;;4415429;28;658122;-70
2021/07/08 04:48:40;;;;;;;9.27;4.97;;;18.10;99.90;;;;;;4422436;28;657926;-70
2021/07/08 04:51:28;;;;;;;14.07;5.30;;;18.30;99.90;;;;;;4431300;28;657646;-70
2021/07/08 04:54:15;;;;;;;9.80;5.70;;;18.50;99.90;;;;;;4411375;28;657614;-70
2021/07/08 04:57:03;;;;;;;11.40;5.57;;;18.60;99.90;;;;;;4424647;28;657742;-70
2021/07/08 04:59:53;;;;;;;15.77;5.70;;;18.80;99.90;;;;;;4407952;28;658210;-70
2021/07/08 05:02:43;;;;;;;13.80;6.20;;;19.00;99.90;;;;;;4411640;28;658191;-70
2021/07/08 05:05:31;;;;;;;13.37;6.80;;;19.10;99.90;;;;;;4425286;28;657619;-70
2021/07/08 05:08:18;;;;;;;14.87;7.10;;;19.30;99.90;;;;;;4424323;28;657602;-70
2021/07/08 05:11:06;;;;;;;21.20;7.83;;;19.40;99.90;;;;;;4410403;28;658181;-70
2021/07/08 05:13:54;;;;;;;23.00;9.10;;;19.50;99.90;;;;;;4416713;28;658236;-70
2021/07/08 05:16:41;;;;;;;20.27;9.50;;;19.70;99.90;;;;;;4414719;28;657864;-69
2021/07/08 05:19:31;;;;;;;19.87;8.07;;;19.70;99.90;;;;;;4417650;28;658060;-70
2021/07/08 05:22:21;;;;;;;21.93;9.50;;;19.70;99.90;;;;;;4440896;28;657526;-70
2021/07/08 05:25:09;;;;;;;28.70;12.60;;;19.80;99.90;;;;;;4430279;28;657828;-70
2021/07/08 05:27:57;;;;;;;33.90;16.17;;;19.90;99.90;;;;;;4443058;28;659109;-70
2021/07/08 05:30:44;;;;;;;39.90;16.80;;;20.00;99.90;;;;;;4425865;28;659463;-70
2021/07/08 05:33:32;;;;;;;45.40;19.87;;;20.00;99.90;;;;;;4447894;28;658979;-70
2021/07/08 05:36:21;;;;;;;38.97;19.93;;;20.10;99.90;;;;;;4434740;28;659446;-70
2021/07/08 05:39:09;;;;;;;41.17;20.10;;;20.20;99.90;;;;;;4468012;28;658345;-70
2021/07/08 05:41:56;;;;;;;35.80;17.00;;;20.20;99.90;;;;;;4428733;28;659478;-70
2021/07/08 05:44:44;;;;;;;33.37;15.77;;;20.20;99.90;;;;;;4456053;28;658599;-70
2021/07/08 05:47:32;;;;;;;31.67;13.80;;;20.40;99.90;;;;;;4441751;28;659822;-69
2021/07/08 05:50:20;;;;;;;25.33;13.40;;;20.50;99.90;;;;;;4429341;28;658647;-70
2021/07/08 05:53:09;;;;;;;34.23;15.90;;;20.70;99.90;;;;;;4448988;28;659196;-70
2021/07/08 05:55:56;;;;;;;37.63;17.40;;;20.70;99.90;;;;;;4429909;28;659131;-70
2021/07/08 05:58:44;;;;;;;34.23;15.50;;;20.60;99.90;;;;;;4446247;28;658737;-70
2021/07/08 06:01:32;;;;;;;33.50;16.17;;;20.40;99.90;;;;;;4463795;28;660025;-70
2021/07/08 06:04:19;;;;;;;31.30;15.17;;;20.50;99.90;;;;;;4445843;28;658269;-71
2021/07/08 06:07:07;;;;;;;28.33;12.93;;;20.60;99.90;;;;;;4466380;28;658957;-70
2021/07/08 06:09:56;;;;;;;36.17;13.40;;;20.70;99.90;;;;;;4440713;28;659247;-70
2021/07/08 06:12:46;;;;;;;30.50;12.57;;;20.70;99.90;;;;;;4451441;28;659225;-71
2021/07/08 06:15:34;;;;;;;26.23;11.63;;;20.80;99.90;;;;;;4449573;28;658442;-69
2021/07/08 06:18:27;;;;;;;24.57;10.27;;;20.80;99.90;;;;;;4434123;28;658821;-70
2021/07/08 06:21:17;;;;;;;22.40;9.30;;;20.90;99.90;;;;;;4409447;28;658725;-70
2021/07/08 06:24:08;;;;;;;26.47;9.43;;;21.00;99.90;;;;;;4448017;28;658135;-71
2021/07/08 06:26:59;;;;;;;20.17;7.93;;;21.00;99.90;;;;;;4448169;28;658801;-69
2021/07/08 06:29:49;;;;;;;17.83;7.00;;;21.00;99.90;;;;;;4417196;28;657992;-69
2021/07/08 06:32:38;;;;;;;14.43;7.03;;;21.10;99.90;;;;;;4427459;28;658477;-70
2021/07/08 06:35:28;;;;;;;15.07;6.07;;;21.10;99.90;;;;;;4421814;28;658898;-70
2021/07/08 06:38:16;;;;;;;17.20;6.10;;;21.20;99.90;;;;;;4430052;28;657439;-70
2021/07/08 06:41:03;;;;;;;15.60;6.10;;;21.20;99.90;;;;;;4430525;28;658390;-70
2021/07/08 06:43:52;;;;;;;17.97;6.37;;;21.20;99.90;;;;;;4429523;28;658872;-70
2021/07/08 06:46:40;;;;;;;13.03;6.33;;;21.30;99.90;;;;;;4504044;28;657395;-74
2021/07/08 06:49:28;;;;;;;18.53;6.20;;;21.40;99.90;;;;;;4450931;28;657817;-74
2021/07/08 06:52:16;;;;;;;11.87;5.77;;;21.50;99.90;;;;;;4428264;28;657264;-74
2021/07/08 06:55:04;;;;;;;15.77;6.27;;;21.60;99.90;;;;;;4455610;28;658458;-74
2021/07/08 06:57:52;;;;;;;14.87;6.37;;;21.70;99.90;;;;;;4416358;28;658893;-74
2021/07/08 07:00:42;;;;;;;16.33;5.87;;;21.80;99.90;;;;;;4420115;28;657830;-73
2021/07/08 07:03:34;;;;;;;15.63;5.90;;;22.00;99.90;;;;;;4431194;28;657975;-71
2021/07/08 07:06:22;;;;;;;18.10;5.93;;;22.10;99.90;;;;;;4434133;28;658794;-74
2021/07/08 07:09:10;;;;;;;25.47;6.97;;;22.30;99.90;;;;;;4440458;28;657703;-72
2021/07/08 07:11:57;;;;;;;23.57;9.97;;;22.50;99.90;;;;;;4464564;28;658428;-73
2021/07/08 07:14:45;;;;;;;22.40;9.03;;;22.60;99.90;;;;;;4433032;28;657937;-71
2021/07/08 07:17:36;;;;;;;23.47;10.17;;;22.90;99.90;;;;;;4449169;28;659052;-71
2021/07/08 07:20:23;;;;;;;22.87;10.23;;;22.80;99.90;;;;;;4437456;28;658451;-72
2021/07/08 07:23:11;;;;;;;23.73;8.53;;;22.70;99.90;;;;;;4444557;28;658718;-71
2021/07/08 07:25:59;;;;;;;14.90;5.30;;;23.10;99.90;;;;;;4464952;28;657289;-71
2021/07/08 07:28:46;;;;;;;16.90;5.33;;;23.40;99.90;;;;;;4423397;28;658784;-71
2021/07/08 07:31:34;;;;;;;13.30;5.10;;;23.50;99.90;;;;;;4451306;28;657763;-71
2021/07/08 07:34:23;;;;;;;12.10;4.63;;;23.80;99.90;;;;;;4426746;28;658330;-71
2021/07/08 07:37:11;;;;;;;13.27;5.07;;;24.10;99.90;;;;;;4436908;28;658024;-71
2021/07/08 07:39:58;;;;;;;13.67;5.60;;;24.20;99.90;;;;;;4445594;28;658296;-71
2021/07/08 07:42:46;;;;;;;15.20;4.93;;;24.30;99.90;;;;;;4389395;28;658557;-70
2021/07/08 07:45:34;;;;;;;13.27;4.93;;;24.50;99.90;;;;;;4435041;28;657712;-70
2021/07/08 07:48:21;;;;;;;22.87;5.30;;;24.90;99.90;;;;;;4443499;28;659231;-71
2021/07/08 07:51:11;;;;;;;13.57;4.80;;;25.00;99.90;;;;;;4463891;28;657769;-70
2021/07/08 07:53:59;;;;;;;11.17;4.83;;;25.20;99.90;;;;;;4457951;28;657672;-70
2021/07/08 07:56:47;;;;;;;13.05;4.55;;;25.30;99.90;;;;;;4424343;28;658739;-70
2021/07/08 07:59:35;;;;;;;15.05;5.57;;;25.40;99.90;;;;;;4435673;28;657451;-69
2021/07/08 08:02:22;;;;;;;15.32;5.15;;;25.50;99.90;;;;;;4456342;28;658492;-70
2021/07/08 08:08:30;;;;;;;14.63;5.75;;;26.00;99.90;;;;;;4339055;28;658411;-71
2021/07/08 08:11:20;;;;;;;17.77;5.57;;;26.20;99.90;;;;;;4371615;28;658123;-70
2021/07/08 08:14:08;;;;;;;21.83;6.20;;;26.20;99.90;;;;;;4387811;28;658825;-71
2021/07/08 08:16:55;;;;;;;15.15;6.68;;;26.20;99.90;;;;;;4391834;28;657722;-72
2021/07/08 08:19:43;;;;;;;17.08;6.10;;;26.10;99.90;;;;;;4414475;28;657495;-71
2021/07/08 08:22:31;;;;;;;14.93;6.57;;;26.30;99.90;;;;;;4387832;28;657891;-70
2021/07/08 08:25:20;;;;;;;14.60;6.13;;;26.60;99.90;;;;;;4412300;28;657518;-71
2021/07/08 08:28:08;;;;;;;17.98;6.90;;;26.60;99.90;;;;;;4387227;28;658008;-71
2021/07/08 08:30:55;;;;;;;18.60;6.40;;;26.60;99.90;;;;;;4389714;28;657529;-71
2021/07/08 08:33:43;;;;;;;14.35;6.28;;;26.80;99.90;;;;;;4413943;28;657163;-72
2021/07/08 08:36:31;;;;;;;15.80;7.03;;;26.60;99.90;;;;;;4386621;28;657956;-71
2021/07/08 08:39:18;;;;;;;15.80;6.47;;;26.50;99.90;;;;;;4410564;28;657498;-71
2021/07/08 08:42:09;;;;;;;16.23;6.72;;;26.50;99.90;;;;;;4391697;28;657652;-71
2021/07/08 08:44:56;;;;;;;20.00;7.05;;;26.40;99.90;;;;;;4381674;28;658843;-72
2021/07/08 08:48:00;;;;;;;15.65;6.93;;;26.30;99.90;;;;;;4406905;28;658366;-70
2021/07/08 08:50:49;;;;;;;14.95;6.95;;;26.50;99.90;;;;;;4410039;28;658069;-71
2021/07/08 08:53:36;;;;;;;14.30;7.20;;;26.70;99.90;;;;;;4421678;28;658716;-71
2021/07/08 08:56:25;;;;;;;13.10;6.70;;;26.90;99.90;;;;;;4454955;28;657484;-70
2021/07/08 08:59:14;;;;;;;13.00;6.07;;;27.00;99.90;;;;;;4468652;28;658434;-71
2021/07/08 09:02:12;;;;;;;19.60;6.93;;;26.80;99.90;;;;;;4427126;28;660128;-71
2021/07/08 09:05:05;;;;;;;16.35;6.90;;;27.10;99.90;;;;;;4440283;28;658128;-70
2021/07/08 09:07:53;;;;;;;12.02;6.50;;;27.20;99.90;;;;;;4433756;28;658013;-71
2021/07/08 09:10:41;;;;;;;20.10;6.70;;;27.60;99.90;;;;;;4441191;28;658117;-71
2021/07/08 09:13:28;;;;;;;17.88;6.68;;;27.90;99.90;;;;;;4459741;28;658013;-71
2021/07/08 09:16:18;;;;;;;21.05;6.53;;;27.90;99.90;;;;;;4446296;28;658174;-71
2021/07/08 09:19:08;;;;;;;16.90;6.50;;;28.10;99.90;;;;;;4437624;28;658070;-71
2021/07/08 09:21:59;;;;;;;16.75;6.18;;;28.20;99.90;;;;;;4433351;28;658105;-71
2021/07/08 09:24:47;;;;;;;14.13;5.70;;;28.40;99.90;;;;;;4441874;28;659095;-71
2021/07/08 09:27:35;;;;;;;23.50;6.82;;;28.80;99.90;;;;;;4439596;28;657310;-70
2021/07/08 09:30:24;;;;;;;13.25;5.55;;;29.20;99.90;;;;;;4453444;28;657265;-71
2021/07/08 09:33:38;;;;;;;16.80;6.22;;;29.10;99.90;;;;;;4440384;28;658874;-71
2021/07/08 09:36:27;;;;;;;10.30;6.10;;;29.50;99.90;;;;;;4410327;28;657915;-71
2021/07/08 09:39:15;;;;;;;14.63;6.75;;;29.80;99.90;;;;;;4445179;28;658289;-71
2021/07/08 09:42:03;;;;;;;15.85;6.22;;;29.90;99.90;;;;;;4455627;28;657596;-72
2021/07/08 09:44:51;;;;;;;17.38;7.25;;;29.80;99.90;;;;;;4428474;28;658394;-71
2021/07/08 09:47:39;;;;;;;15.98;6.63;;;30.00;99.90;;;;;;4449364;28;657926;-71
2021/07/08 09:50:36;;;;;;;14.57;6.53;;;30.10;99.90;;;;;;4430401;28;658135;-71
2021/07/08 09:53:26;;;;;;;13.77;6.70;;;30.50;99.90;;;;;;4435208;28;657651;-72
2021/07/08 09:56:38;;;;;;;10.35;6.38;;;30.60;99.90;;;;;;4440544;28;658263;-71
2021/07/08 09:59:35;;;;;;;14.20;6.38;;;30.90;99.90;;;;;;4402553;28;659395;-71
2021/07/08 10:02:31;;;;;;;11.75;6.50;;;31.00;99.90;;;;;;4442142;28;658021;-72
2021/07/08 10:05:19;;;;;;;15.97;6.23;;;31.10;99.90;;;;;;4441341;28;658130;-72
2021/07/08 10:08:10;;;;;;;13.10;6.18;;;31.30;99.90;;;;;;4432221;28;658577;-72
2021/07/08 10:10:59;;;;;;;11.90;6.30;;;31.30;99.90;;;;;;4411864;28;657717;-72
2021/07/08 10:13:47;;;;;;;14.20;6.25;;;31.80;99.90;;;;;;4427586;28;658944;-72
2021/07/08 10:16:35;;;;;;;16.00;6.43;;;31.50;99.90;;;;;;4440947;28;657496;-71
2021/07/08 10:19:24;;;;;;;12.93;6.55;;;31.70;99.90;;;;;;4462179;28;657219;-71
2021/07/08 10:22:11;;;;;;;20.95;6.90;;;31.70;99.90;;;;;;4448219;28;658384;-72
2021/07/08 10:25:00;;;;;;;12.55;6.60;;;31.70;99.90;;;;;;4453896;28;657860;-70
2021/07/08 10:27:49;;;;;;;17.67;6.72;;;32.10;99.90;;;;;;4453886;28;658747;-72
2021/07/08 10:30:36;;;;;;;14.48;6.18;;;32.10;99.90;;;;;;4448034;28;658368;-71
2021/07/08 10:33:25;;;;;;;13.50;6.47;;;32.40;99.90;;;;;;4444882;28;657613;-70
2021/07/08 10:36:12;;;;;;;17.42;6.43;;;32.30;99.90;;;;;;4453228;28;658153;-71
2021/07/08 10:39:02;;;;;;;12.35;6.57;;;32.70;99.90;;;;;;4441118;28;657552;-71
2021/07/08 10:41:51;;;;;;;15.87;6.17;;;33.40;99.90;;;;;;4440045;28;657176;-71
2021/07/08 10:44:48;;;;;;;13.95;5.97;;;33.50;99.90;;;;;;4449134;28;657818;-70
2021/07/08 10:47:40;;;;;;;12.00;6.77;;;33.80;99.90;;;;;;4410226;28;658038;-72
2021/07/08 10:50:41;;;;;;;11.37;6.70;;;33.90;99.90;;;;;;4434799;28;658607;-72
2021/07/08 10:53:41;;;;;;;16.63;6.43;;;33.40;99.90;;;;;;4436599;28;658141;-72
2021/07/08 10:56:33;;;;;;;12.43;6.23;;;33.00;99.90;;;;;;4426388;28;657711;-72
2021/07/08 10:59:21;;;;;;;17.23;6.43;;;32.60;99.90;;;;;;4422892;28;658219;-72
2021/07/08 11:02:10;;;;;;;12.60;6.82;;;32.10;99.90;;;;;;4455656;28;657578;-72
2021/07/08 11:04:58;;;;;;;13.53;6.27;;;31.50;99.90;;;;;;4430493;28;658100;-72
2021/07/08 11:07:46;;;;;;;19.13;6.97;;;31.10;99.90;;;;;;4438758;28;658180;-72
2021/07/08 11:10:34;;;;;;;22.60;7.27;;;30.80;99.90;;;;;;4455166;28;658041;-73
2021/07/08 11:13:28;;;;;;;15.93;6.90;;;30.70;99.90;;;;;;4438241;28;658983;-72
2021/07/08 11:16:39;;;;;;;14.82;7.15;;;30.50;99.90;;;;;;4414731;28;658593;-72
2021/07/08 11:19:37;;;;;;;12.73;6.85;;;30.50;99.90;;;;;;4430034;28;658449;-72
2021/07/08 11:22:27;;;;;;;20.73;7.13;;;30.70;99.90;;;;;;4419445;28;657919;-71
2021/07/08 11:25:15;;;;;;;12.50;6.97;;;30.90;99.90;;;;;;4444458;28;658047;-70
2021/07/08 11:28:02;;;;;;;10.82;7.40;;;30.90;99.90;;;;;;4462000;28;658696;-73
2021/07/08 11:30:58;;;;;;;16.42;6.40;;;30.70;99.90;;;;;;4439522;28;657929;-73
2021/07/08 11:33:47;;;;;;;11.00;7.45;;;30.70;99.90;;;;;;4426680;28;658197;-72
2021/07/08 11:36:37;;;;;;;16.15;7.40;;;30.90;99.90;;;;;;4443459;28;658140;-70
2021/07/08 11:39:26;;;;;;;13.57;7.55;;;31.30;99.90;;;;;;4432310;28;657354;-72
2021/07/08 11:42:14;;;;;;;16.25;7.35;;;31.50;99.90;;;;;;4462824;28;657980;-71
2021/07/08 11:45:02;;;;;;;9.48;6.88;;;31.80;99.90;;;;;;4461668;28;658042;-72
2021/07/08 11:47:50;;;;;;;15.18;7.47;;;32.00;99.90;;;;;;4435750;28;656519;-72
2021/07/08 11:50:39;;;;;;;15.90;8.20;;;32.40;99.90;;;;;;4460967;28;657079;-72
2021/07/08 11:53:28;;;;;;;13.57;7.37;;;32.60;99.90;;;;;;4432541;28;659114;-72
2021/07/08 11:56:17;;;;;;;15.05;7.35;;;32.60;99.90;;;;;;4434500;28;657593;-72
2021/07/08 11:59:05;;;;;;;18.00;7.38;;;32.70;99.90;;;;;;4448391;28;658272;-70
2021/07/08 12:01:53;;;;;;;12.55;7.70;;;32.70;99.90;;;;;;4456692;28;658582;-72
2021/07/08 12:04:40;;;;;;;17.90;8.00;;;33.00;99.90;;;;;;4435108;28;657710;-72
2021/07/08 12:07:28;;;;;;;14.27;7.43;;;33.10;99.90;;;;;;4458316;28;658082;-72
2021/07/08 12:10:23;;;;;;;15.47;7.87;;;33.60;99.90;;;;;;4437830;28;657811;-71
2021/07/08 12:13:11;;;;;;;12.68;7.55;;;33.80;99.90;;;;;;4433885;28;657654;-72
2021/07/08 12:16:04;;;;;;;12.05;7.38;;;33.90;99.90;;;;;;4456660;28;657654;-72
2021/07/08 12:18:52;;;;;;;15.27;7.03;;;34.20;99.90;;;;;;4407079;28;658058;-71
2021/07/08 12:21:40;;;;;;;9.52;7.07;;;34.50;99.90;;;;;;4437407;28;658348;-71
2021/07/08 12:24:29;;;;;;;13.80;6.80;;;34.50;99.90;;;;;;4463457;28;657116;-72
2021/07/08 12:27:18;;;;;;;13.77;6.50;;;34.70;99.90;;;;;;4434480;28;658913;-72
2021/07/08 12:30:06;;;;;;;13.25;7.13;;;34.40;99.90;;;;;;4434067;28;657854;-72
2021/07/08 12:33:08;;;;;;;14.32;7.05;;;34.40;99.90;;;;;;4448706;28;657730;-71
2021/07/08 12:35:56;;;;;;;13.00;6.43;;;34.50;99.90;;;;;;4429192;28;657912;-72
2021/07/08 12:38:46;;;;;;;13.25;6.18;;;34.50;99.90;;;;;;4465003;28;657996;-72
2021/07/08 12:41:34;;;;;;;15.68;6.68;;;34.80;99.90;;;;;;4435539;28;658468;-72
2021/07/08 12:44:23;;;;;;;9.10;6.47;;;34.80;99.90;;;;;;4433741;28;658975;-72
2021/07/08 12:47:10;;;;;;;17.30;6.85;;;34.70;99.90;;;;;;4443854;28;657309;-71
2021/07/08 12:49:59;;;;;;;9.63;6.40;;;34.90;99.90;;;;;;4454441;28;657781;-71
2021/07/08 12:52:47;;;;;;;13.80;7.20;;;34.90;99.90;;;;;;4447006;28;657178;-71
2021/07/08 12:55:39;;;;;;;9.70;6.38;;;35.00;99.90;;;;;;4442901;28;657987;-70
2021/07/08 12:58:28;;;;;;;10.87;6.50;;;35.20;99.90;;;;;;4432284;28;657126;-71
2021/07/08 13:01:17;;;;;;;10.32;6.45;;;35.40;99.90;;;;;;4441512;28;658948;-71
2021/07/08 13:04:06;;;;;;;11.95;6.43;;;35.70;99.90;;;;;;4439968;28;657799;-71
2021/07/08 13:06:58;;;;;;;14.75;6.47;;;35.80;99.90;;;;;;4457111;28;658993;-71
2021/07/08 13:09:55;;;;;;;14.83;6.30;;;35.80;99.90;;;;;;4419076;28;658352;-71
2021/07/08 13:12:44;;;;;;;11.90;6.18;;;35.80;99.90;;;;;;4435554;28;658184;-71
2021/07/08 13:15:32;;;;;;;11.15;6.22;;;35.60;99.90;;;;;;4439062;28;659050;-72
2021/07/08 13:18:28;;;;;;;14.48;6.35;;;35.60;99.90;;;;;;4445129;28;658152;-70
2021/07/08 13:21:16;;;;;;;11.65;5.40;;;35.70;99.90;;;;;;4441453;28;657432;-71
2021/07/08 13:24:04;;;;;;;15.70;6.38;;;35.50;99.90;;;;;;4458118;28;658115;-71
2021/07/08 13:26:51;;;;;;;13.30;6.10;;;35.70;99.90;;;;;;4441712;28;659200;-71
2021/07/08 13:29:40;;;;;;;10.13;5.78;;;36.00;99.90;;;;;;4445014;28;657999;-70
2021/07/08 13:32:27;;;;;;;11.57;6.20;;;36.20;99.80;;;;;;4454458;28;658244;-71
2021/07/08 13:35:16;;;;;;;15.35;6.00;;;36.00;98.80;;;;;;4438331;28;657862;-71
2021/07/08 13:38:11;;;;;;;11.30;5.68;;;35.50;98.70;;;;;;4470071;28;658764;-71
2021/07/08 13:41:06;;;;;;;7.80;5.93;;;35.80;99.50;;;;;;4435019;28;657841;-71
2021/07/08 13:43:58;;;;;;;17.52;6.35;;;36.00;99.20;;;;;;4446455;28;656363;-71
2021/07/08 13:46:46;;;;;;;13.77;5.80;;;36.20;98.50;;;;;;4407448;28;658588;-72
2021/07/08 13:49:34;;;;;;;10.63;6.10;;;36.50;97.00;;;;;;4467777;28;657868;-72
2021/07/08 13:52:24;;;;;;;12.27;5.75;;;36.70;96.10;;;;;;4444248;28;658918;-72
2021/07/08 13:55:12;;;;;;;12.73;5.90;;;36.80;96.20;;;;;;4434230;28;658775;-71
2021/07/08 13:58:00;;;;;;;15.00;6.45;;;36.90;96.50;;;;;;4406552;28;657749;-71
2021/07/08 14:00:48;;;;;;;12.10;6.38;;;37.00;95.10;;;;;;4463373;28;659121;-72
2021/07/08 14:03:35;;;;;;;11.50;5.90;;;37.10;95.10;;;;;;4441555;28;657894;-71
2021/07/08 14:06:24;;;;;;;11.15;5.90;;;37.00;95.80;;;;;;4464797;28;660488;-72
2021/07/08 14:09:13;;;;;;;13.52;6.10;;;36.90;94.70;;;;;;4435959;28;658646;-71
2021/07/08 14:12:00;;;;;;;8.77;5.72;;;36.60;95.20;;;;;;4436321;28;657856;-71
2021/07/08 14:14:48;;;;;;;14.52;6.30;;;36.40;94.10;;;;;;4467339;28;656825;-72
2021/07/08 14:17:38;;;;;;;14.57;6.10;;;36.40;94.60;;;;;;4443693;28;657923;-72
2021/07/08 14:20:25;;;;;;;18.38;6.65;;;36.30;93.70;;;;;;4436169;28;657511;-72
2021/07/08 14:23:13;;;;;;;11.65;6.35;;;35.90;94.70;;;;;;4454287;28;658072;-72